Terminal Aerodrome Forecast
Issued by NWS Greer, SC

Home | Current Version | Previous Version | Text Only | Print | Product List | Glossary On
Versions: 1 2 3 4 5 6 7 8 9 10 11 12 13 14 15 16 17 18 19 20 21 22 23 24 25 26 27 28 29 30 31 32 33 34 35 36 37 38
000
FTUS42 KGSP 011200 RRA
TAFAVL
TAF
KAVL 011225Z 0112/0212 VRB03KT 3SM BR BKN009 BKN019 OVC070
     FM011400 34006KT 5SM -SHRA OVC018
      TEMPO 0115/0119 -SHRA BKN035
     FM011900 14003KT P6SM VCTS OVC027CB
     FM020200 00000KT 5SM BR BKN010=

USA.gov is the U.S. government's official web portal to all federal, state and local government web resources and services.